sensor_id;sensor_type;location;lat;lon;timestamp;pressure;altitude;pressure_sealevel;temperature;humidity
56176;BME280;63065;51.082;17.016;2023-04-01T00:00:56;98477.50;;;14.99;42.17
56176;BME280;63065;51.082;17.016;2023-04-01T00:03:22;98476.31;;;15.05;42.34
56176;BME280;63065;51.082;17.016;2023-04-01T00:05:47;98478.07;;;14.89;42.17
56176;BME280;63065;51.082;17.016;2023-04-01T00:08:12;98475.51;;;15.15;42.06
56176;BME280;63065;51.082;17.016;2023-04-01T00:10:37;98477.15;;;15.21;41.94
56176;BME280;63065;51.082;17.016;2023-04-01T00:13:03;98478.29;;;15.02;41.88
56176;BME280;63065;51.082;17.016;2023-04-01T00:15:30;98474.93;;;15.23;41.90
56176;BME280;63065;51.082;17.016;2023-04-01T00:17:54;98474.96;;;15.03;41.90
56176;BME280;63065;51.082;17.016;2023-04-01T00:20:19;98473.04;;;15.23;41.84
56176;BME280;63065;51.082;17.016;2023-04-01T00:22:45;98470.94;;;15.20;41.49
56176;BME280;63065;51.082;17.016;2023-04-01T00:25:11;98471.52;;;15.08;41.70
56176;BME280;63065;51.082;17.016;2023-04-01T00:27:36;98472.26;;;14.73;41.89
56176;BME280;63065;51.082;17.016;2023-04-01T00:30:04;98472.32;;;15.12;41.28
56176;BME280;63065;51.082;17.016;2023-04-01T00:32:27;98470.55;;;14.99;41.80
56176;BME280;63065;51.082;17.016;2023-04-01T00:34:53;98471.01;;;14.85;41.56
56176;BME280;63065;51.082;17.016;2023-04-01T00:37:19;98470.02;;;15.08;41.54
56176;BME280;63065;51.082;17.016;2023-04-01T00:39:44;98472.42;;;15.18;41.32
56176;BME280;63065;51.082;17.016;2023-04-01T00:42:10;98471.54;;;15.22;41.50
56176;BME280;63065;51.082;17.016;2023-04-01T00:44:38;98468.05;;;15.23;41.49
56176;BME280;63065;51.082;17.016;2023-04-01T00:47:01;98469.74;;;15.25;41.32
56176;BME280;63065;51.082;17.016;2023-04-01T00:49:29;98466.05;;;15.23;41.17
56176;BME280;63065;51.082;17.016;2023-04-01T00:51:55;98465.23;;;15.19;41.20
56176;BME280;63065;51.082;17.016;2023-04-01T00:54:20;98467.63;;;15.16;41.41
56176;BME280;63065;51.082;17.016;2023-04-01T00:56:46;98466.06;;;15.18;41.49
56176;BME280;63065;51.082;17.016;2023-04-01T00:59:11;98467.36;;;15.17;41.65
56176;BME280;63065;51.082;17.016;2023-04-01T01:01:35;98469.37;;;15.19;41.55
56176;BME280;63065;51.082;17.016;2023-04-01T01:04:00;98470.51;;;15.22;41.19
56176;BME280;63065;51.082;17.016;2023-04-01T01:06:35;98468.60;;;15.13;41.32
56176;BME280;63065;51.082;17.016;2023-04-01T01:09:02;98470.29;;;15.10;41.62
56176;BME280;63065;51.082;17.016;2023-04-01T01:11:22;98470.35;;;15.15;41.57
56176;BME280;63065;51.082;17.016;2023-04-01T01:13:47;98472.82;;;15.17;41.56
56176;BME280;63065;51.082;17.016;2023-04-01T01:16:14;98470.04;;;15.17;41.52
56176;BME280;63065;51.082;17.016;2023-04-01T01:18:36;98467.44;;;14.90;41.15
56176;BME280;63065;51.082;17.016;2023-04-01T01:21:20;98468.73;;;15.06;40.83
56176;BME280;63065;51.082;17.016;2023-04-01T01:23:42;98464.09;;;14.95;41.19
56176;BME280;63065;51.082;17.016;2023-04-01T01:25:57;98461.50;;;14.68;41.94
56176;BME280;63065;51.082;17.016;2023-04-01T01:28:28;98461.82;;;14.96;42.22
56176;BME280;63065;51.082;17.016;2023-04-01T01:30:44;98464.16;;;14.90;41.85
56176;BME280;63065;51.082;17.016;2023-04-01T01:33:15;98466.39;;;14.99;41.65
56176;BME280;63065;51.082;17.016;2023-04-01T01:35:36;98469.04;;;15.02;42.11
56176;BME280;63065;51.082;17.016;2023-04-01T01:38:01;98469.08;;;15.12;41.44
56176;BME280;63065;51.082;17.016;2023-04-01T01:40:26;98468.91;;;15.17;41.78
56176;BME280;63065;51.082;17.016;2023-04-01T01:42:53;98468.01;;;15.18;41.01
56176;BME280;63065;51.082;17.016;2023-04-01T01:45:18;98466.17;;;15.25;41.22
56176;BME280;63065;51.082;17.016;2023-04-01T01:47:41;98465.17;;;15.26;41.24
56176;BME280;63065;51.082;17.016;2023-04-01T01:50:08;98464.85;;;15.19;41.58
56176;BME280;63065;51.082;17.016;2023-04-01T01:52:32;98463.04;;;15.22;41.55
56176;BME280;63065;51.082;17.016;2023-04-01T01:54:58;98461.67;;;15.26;41.39
56176;BME280;63065;51.082;17.016;2023-04-01T01:57:25;98459.64;;;15.37;41.03
56176;BME280;63065;51.082;17.016;2023-04-01T01:59:49;98459.48;;;15.05;41.48
56176;BME280;63065;51.082;17.016;2023-04-01T02:02:20;98457.02;;;15.29;41.48
56176;BME280;63065;51.082;17.016;2023-04-01T02:04:43;98456.61;;;15.33;41.32
56176;BME280;63065;51.082;17.016;2023-04-01T02:07:10;98457.36;;;15.36;41.35
56176;BME280;63065;51.082;17.016;2023-04-01T02:09:31;98457.80;;;15.37;41.53
56176;BME280;63065;51.082;17.016;2023-04-01T02:11:59;98455.97;;;15.37;41.58
56176;BME280;63065;51.082;17.016;2023-04-01T02:14:24;98456.83;;;15.17;41.56
56176;BME280;63065;51.082;17.016;2023-04-01T02:16:53;98456.23;;;15.23;41.51
56176;BME280;63065;51.082;17.016;2023-04-01T02:19:15;98453.81;;;15.53;41.26
56176;BME280;63065;51.082;17.016;2023-04-01T02:21:41;98449.98;;;15.51;41.11
56176;BME280;63065;51.082;17.016;2023-04-01T02:24:10;98449.34;;;15.47;41.30
56176;BME280;63065;51.082;17.016;2023-04-01T02:26:30;98447.00;;;15.29;41.58
56176;BME280;63065;51.082;17.016;2023-04-01T02:28:56;98444.81;;;15.56;41.45
56176;BME280;63065;51.082;17.016;2023-04-01T02:31:22;98442.92;;;15.08;41.06
56176;BME280;63065;51.082;17.016;2023-04-01T02:33:47;98443.53;;;15.60;41.08
56176;BME280;63065;51.082;17.016;2023-04-01T02:36:13;98441.98;;;15.58;41.00
56176;BME280;63065;51.082;17.016;2023-04-01T02:38:37;98441.83;;;15.39;40.99
56176;BME280;63065;51.082;17.016;2023-04-01T02:41:04;98441.09;;;15.66;40.90
56176;BME280;63065;51.082;17.016;2023-04-01T02:43:29;98443.02;;;15.40;40.57
56176;BME280;63065;51.082;17.016;2023-04-01T02:45:55;98443.23;;;15.16;41.22
56176;BME280;63065;51.082;17.016;2023-04-01T02:48:20;98446.64;;;15.48;41.42
56176;BME280;63065;51.082;17.016;2023-04-01T02:50:46;98449.71;;;15.53;41.30
56176;BME280;63065;51.082;17.016;2023-04-01T02:53:12;98451.52;;;15.53;40.74
56176;BME280;63065;51.082;17.016;2023-04-01T02:55:38;98454.07;;;15.52;41.19
56176;BME280;63065;51.082;17.016;2023-04-01T02:58:03;98456.36;;;15.50;41.03
56176;BME280;63065;51.082;17.016;2023-04-01T03:00:30;98457.53;;;15.58;41.13
56176;BME280;63065;51.082;17.016;2023-04-01T03:02:55;98460.14;;;15.42;41.17
56176;BME280;63065;51.082;17.016;2023-04-01T03:05:20;98459.71;;;15.45;40.73
56176;BME280;63065;51.082;17.016;2023-04-01T03:07:46;98461.94;;;15.48;41.19
56176;BME280;63065;51.082;17.016;2023-04-01T03:10:12;98460.86;;;15.34;40.25
56176;BME280;63065;51.082;17.016;2023-04-01T03:12:37;98464.79;;;15.69;40.80
56176;BME280;63065;51.082;17.016;2023-04-01T03:15:04;98470.33;;;15.51;40.81
56176;BME280;63065;51.082;17.016;2023-04-01T03:17:28;98468.95;;;15.46;40.73
56176;BME280;63065;51.082;17.016;2023-04-01T03:19:54;98472.99;;;15.24;41.45
56176;BME280;63065;51.082;17.016;2023-04-01T03:22:20;98473.46;;;15.19;41.38
56176;BME280;63065;51.082;17.016;2023-04-01T03:24:45;98471.77;;;15.32;40.83
56176;BME280;63065;51.082;17.016;2023-04-01T03:27:10;98471.66;;;15.58;41.02
56176;BME280;63065;51.082;17.016;2023-04-01T03:29:36;98473.35;;;15.32;40.68
56176;BME280;63065;51.082;17.016;2023-04-01T03:32:02;98470.76;;;15.37;41.45
56176;BME280;63065;51.082;17.016;2023-04-01T03:34:27;98471.93;;;15.16;41.34
56176;BME280;63065;51.082;17.016;2023-04-01T03:36:53;98475.31;;;15.40;41.38
56176;BME280;63065;51.082;17.016;2023-04-01T03:39:18;98476.31;;;15.23;41.79
56176;BME280;63065;51.082;17.016;2023-04-01T03:41:44;98476.35;;;15.25;41.97
56176;BME280;63065;51.082;17.016;2023-04-01T03:44:09;98477.76;;;14.87;42.05
56176;BME280;63065;51.082;17.016;2023-04-01T03:46:34;98476.72;;;14.75;42.08
56176;BME280;63065;51.082;17.016;2023-04-01T03:49:00;98478.36;;;14.85;42.75
56176;BME280;63065;51.082;17.016;2023-04-01T03:51:25;98482.05;;;14.88;42.74
56176;BME280;63065;51.082;17.016;2023-04-01T03:53:51;98484.06;;;15.09;42.45
56176;BME280;63065;51.082;17.016;2023-04-01T03:56:16;98485.43;;;14.69;43.32
56176;BME280;63065;51.082;17.016;2023-04-01T03:58:42;98489.44;;;14.59;42.83
56176;BME280;63065;51.082;17.016;2023-04-01T04:01:14;98489.12;;;13.88;44.23
56176;BME280;63065;51.082;17.016;2023-04-01T04:03:33;98492.85;;;14.08;44.90
56176;BME280;63065;51.082;17.016;2023-04-01T04:05:59;98495.30;;;14.04;44.84
56176;BME280;63065;51.082;17.016;2023-04-01T04:08:24;98494.93;;;13.98;46.00
56176;BME280;63065;51.082;17.016;2023-04-01T04:10:55;98497.09;;;14.16;45.10
56176;BME280;63065;51.082;17.016;2023-04-01T04:13:15;98496.02;;;14.07;45.60
56176;BME280;63065;51.082;17.016;2023-04-01T04:15:41;98499.74;;;14.03;45.74
56176;BME280;63065;51.082;17.016;2023-04-01T04:18:06;98501.47;;;14.12;45.33
56176;BME280;63065;51.082;17.016;2023-04-01T04:20:31;98502.19;;;14.22;46.57
56176;BME280;63065;51.082;17.016;2023-04-01T04:22:57;98503.68;;;14.10;48.51
56176;BME280;63065;51.082;17.016;2023-04-01T04:25:22;98503.87;;;14.48;45.99
56176;BME280;63065;51.082;17.016;2023-04-01T04:27:47;98505.74;;;13.61;45.66
56176;BME280;63065;51.082;17.016;2023-04-01T04:30:13;98508.52;;;14.08;45.65
56176;BME280;63065;51.082;17.016;2023-04-01T04:32:38;98508.67;;;13.43;46.68
56176;BME280;63065;51.082;17.016;2023-04-01T04:35:04;98508.52;;;13.76;47.56
56176;BME280;63065;51.082;17.016;2023-04-01T04:37:29;98508.55;;;13.73;47.90
56176;BME280;63065;51.082;17.016;2023-04-01T04:39:54;98503.91;;;13.86;47.14
56176;BME280;63065;51.082;17.016;2023-04-01T04:42:20;98507.98;;;13.73;47.18
56176;BME280;63065;51.082;17.016;2023-04-01T04:44:45;98504.69;;;13.74;47.28
56176;BME280;63065;51.082;17.016;2023-04-01T04:47:10;98506.07;;;13.90;46.48
56176;BME280;63065;51.082;17.016;2023-04-01T04:49:36;98507.54;;;13.68;47.02
56176;BME280;63065;51.082;17.016;2023-04-01T04:52:02;98508.94;;;14.06;46.79
56176;BME280;63065;51.082;17.016;2023-04-01T04:54:28;98508.46;;;14.11;46.78
56176;BME280;63065;51.082;17.016;2023-04-01T04:56:54;98509.26;;;13.94;46.48
56176;BME280;63065;51.082;17.016;2023-04-01T04:59:19;98509.77;;;13.79;46.87
56176;BME280;63065;51.082;17.016;2023-04-01T05:01:45;98510.83;;;14.27;46.37
56176;BME280;63065;51.082;17.016;2023-04-01T05:04:10;98517.89;;;14.31;46.73
56176;BME280;63065;51.082;17.016;2023-04-01T05:06:36;98518.24;;;14.18;46.55
56176;BME280;63065;51.082;17.016;2023-04-01T05:09:02;98517.62;;;14.15;46.63
56176;BME280;63065;51.082;17.016;2023-04-01T05:11:27;98517.73;;;14.42;46.13
56176;BME280;63065;51.082;17.016;2023-04-01T05:13:53;98516.87;;;13.88;46.33
56176;BME280;63065;51.082;17.016;2023-04-01T05:16:20;98518.36;;;14.03;45.96
56176;BME280;63065;51.082;17.016;2023-04-01T05:18:44;98516.55;;;14.32;46.20
56176;BME280;63065;51.082;17.016;2023-04-01T05:21:10;98520.15;;;14.17;45.40
56176;BME280;63065;51.082;17.016;2023-04-01T05:23:35;98520.51;;;14.22;46.96
56176;BME280;63065;51.082;17.016;2023-04-01T05:26:04;98520.46;;;14.31;45.63
56176;BME280;63065;51.082;17.016;2023-04-01T05:28:25;98519.50;;;14.04;47.08
56176;BME280;63065;51.082;17.016;2023-04-01T05:30:51;98519.67;;;14.15;45.39
56176;BME280;63065;51.082;17.016;2023-04-01T05:33:17;98519.36;;;13.68;46.76
56176;BME280;63065;51.082;17.016;2023-04-01T05:35:42;98520.21;;;14.35;46.66
56176;BME280;63065;51.082;17.016;2023-04-01T05:38:08;98519.05;;;14.42;47.17
56176;BME280;63065;51.082;17.016;2023-04-01T05:40:33;98521.50;;;14.35;47.00
56176;BME280;63065;51.082;17.016;2023-04-01T05:42:59;98520.12;;;13.95;46.89
56176;BME280;63065;51.082;17.016;2023-04-01T05:45:25;98522.77;;;14.39;46.68
56176;BME280;63065;51.082;17.016;2023-04-01T05:47:50;98522.13;;;14.10;46.16
56176;BME280;63065;51.082;17.016;2023-04-01T05:50:16;98520.07;;;14.36;45.53
56176;BME280;63065;51.082;17.016;2023-04-01T05:52:41;98521.03;;;14.38;46.32
56176;BME280;63065;51.082;17.016;2023-04-01T05:55:07;98522.56;;;14.53;46.81
56176;BME280;63065;51.082;17.016;2023-04-01T05:57:32;98521.03;;;14.59;45.89
56176;BME280;63065;51.082;17.016;2023-04-01T05:59:57;98521.87;;;14.51;46.09
56176;BME280;63065;51.082;17.016;2023-04-01T06:02:24;98523.06;;;14.49;46.75
56176;BME280;63065;51.082;17.016;2023-04-01T06:04:49;98528.14;;;14.03;46.42
56176;BME280;63065;51.082;17.016;2023-04-01T06:07:16;98529.98;;;13.98;46.08
56176;BME280;63065;51.082;17.016;2023-04-01T06:09:40;98532.73;;;14.20;47.54
56176;BME280;63065;51.082;17.016;2023-04-01T06:14:38;98536.66;;;14.16;47.31
56176;BME280;63065;51.082;17.016;2023-04-01T06:17:08;98538.18;;;14.45;46.85
56176;BME280;63065;51.082;17.016;2023-04-01T06:19:29;98542.72;;;14.58;46.19
56176;BME280;63065;51.082;17.016;2023-04-01T06:22:01;98542.05;;;14.35;45.88
56176;BME280;63065;51.082;17.016;2023-04-01T06:24:24;98545.50;;;14.01;46.83
56176;BME280;63065;51.082;17.016;2023-04-01T06:26:46;98545.30;;;14.14;47.35
56176;BME280;63065;51.082;17.016;2023-04-01T06:29:23;98546.52;;;14.31;47.77
56176;BME280;63065;51.082;17.016;2023-04-01T06:31:38;98547.74;;;14.16;46.70
56176;BME280;63065;51.082;17.016;2023-04-01T06:34:07;98548.10;;;14.14;46.85
56176;BME280;63065;51.082;17.016;2023-04-01T06:36:36;98549.74;;;14.04;47.17
56176;BME280;63065;51.082;17.016;2023-04-01T06:38:55;98546.54;;;13.86;47.20
56176;BME280;63065;51.082;17.016;2023-04-01T06:41:25;98555.10;;;14.34;47.77
56176;BME280;63065;51.082;17.016;2023-04-01T06:43:45;98552.76;;;14.39;47.53
56176;BME280;63065;51.082;17.016;2023-04-01T06:46:09;98551.52;;;14.68;46.94
56176;BME280;63065;51.082;17.016;2023-04-01T06:48:40;98554.99;;;14.45;47.64
56176;BME280;63065;51.082;17.016;2023-04-01T06:50:58;98550.43;;;14.25;47.01
56176;BME280;63065;51.082;17.016;2023-04-01T06:53:28;98554.13;;;14.16;46.85
56176;BME280;63065;51.082;17.016;2023-04-01T06:55:47;98554.67;;;13.70;47.33
56176;BME280;63065;51.082;17.016;2023-04-01T06:58:19;98554.35;;;14.30;48.18
56176;BME280;63065;51.082;17.016;2023-04-01T07:00:39;98558.42;;;13.99;46.95
56176;BME280;63065;51.082;17.016;2023-04-01T07:03:10;98557.74;;;14.26;47.23
56176;BME280;63065;51.082;17.016;2023-04-01T07:05:32;98560.26;;;14.28;47.37
56176;BME280;63065;51.082;17.016;2023-04-01T07:07:59;98564.02;;;13.93;47.66
56176;BME280;63065;51.082;17.016;2023-04-01T07:10:28;98564.50;;;13.82;48.77
56176;BME280;63065;51.082;17.016;2023-04-01T07:12:48;98559.51;;;14.17;47.78
56176;BME280;63065;51.082;17.016;2023-04-01T07:15:16;98562.63;;;14.41;48.42
56176;BME280;63065;51.082;17.016;2023-04-01T07:17:39;98565.75;;;14.58;47.19
56176;BME280;63065;51.082;17.016;2023-04-01T07:20:10;98568.30;;;14.06;47.76
56176;BME280;63065;51.082;17.016;2023-04-01T07:22:32;98566.93;;;14.08;47.83
56176;BME280;63065;51.082;17.016;2023-04-01T07:24:55;98568.00;;;13.70;49.27
56176;BME280;63065;51.082;17.016;2023-04-01T07:27:21;98569.80;;;13.24;49.22
56176;BME280;63065;51.082;17.016;2023-04-01T07:29:47;98569.57;;;13.93;49.64
56176;BME280;63065;51.082;17.016;2023-04-01T07:32:19;98575.64;;;14.07;48.18
56176;BME280;63065;51.082;17.016;2023-04-01T07:34:48;98576.41;;;13.72;48.52
56176;BME280;63065;51.082;17.016;2023-04-01T07:37:06;98576.55;;;13.66;49.44
56176;BME280;63065;51.082;17.016;2023-04-01T07:39:37;98578.10;;;13.29;50.69
56176;BME280;63065;51.082;17.016;2023-04-01T07:42:01;98578.70;;;13.58;50.87
56176;BME280;63065;51.082;17.016;2023-04-01T07:44:25;98581.41;;;13.80;49.64
56176;BME280;63065;51.082;17.016;2023-04-01T07:46:57;98583.33;;;14.14;47.74
56176;BME280;63065;51.082;17.016;2023-04-01T07:49:15;98587.60;;;13.83;48.19
56176;BME280;63065;51.082;17.016;2023-04-01T07:51:41;98584.68;;;14.06;48.48
56176;BME280;63065;51.082;17.016;2023-04-01T07:54:08;98584.65;;;13.67;48.92
56176;BME280;63065;51.082;17.016;2023-04-01T07:56:31;98588.12;;;14.02;49.10
56176;BME280;63065;51.082;17.016;2023-04-01T07:59:00;98587.73;;;14.05;48.88
56176;BME280;63065;51.082;17.016;2023-04-01T08:01:26;98585.56;;;14.58;48.03
56176;BME280;63065;51.082;17.016;2023-04-01T08:03:59;98592.04;;;14.19;47.70
56176;BME280;63065;51.082;17.016;2023-04-01T08:06:16;98594.10;;;13.92;48.66
56176;BME280;63065;51.082;17.016;2023-04-01T08:08:48;98602.20;;;14.36;49.07
56176;BME280;63065;51.082;17.016;2023-04-01T08:11:11;98598.75;;;14.42;48.17
56176;BME280;63065;51.082;17.016;2023-04-01T08:13:35;98605.89;;;14.56;47.59
56176;BME280;63065;51.082;17.016;2023-04-01T08:15:59;98604.58;;;14.62;48.25
56176;BME280;63065;51.082;17.016;2023-04-01T08:18:28;98609.27;;;14.92;47.84
56176;BME280;63065;51.082;17.016;2023-04-01T08:20:50;98606.10;;;14.24;48.35
56176;BME280;63065;51.082;17.016;2023-04-01T08:23:14;98608.66;;;14.89;48.01
56176;BME280;63065;51.082;17.016;2023-04-01T08:25:40;98608.49;;;14.29;48.70
56176;BME280;63065;51.082;17.016;2023-04-01T08:28:11;98611.59;;;14.95;48.09
56176;BME280;63065;51.082;17.016;2023-04-01T08:30:37;98608.89;;;14.47;47.54
56176;BME280;63065;51.082;17.016;2023-04-01T08:32:58;98611.57;;;14.65;48.02
56176;BME280;63065;51.082;17.016;2023-04-01T08:35:26;98610.70;;;14.88;48.11
56176;BME280;63065;51.082;17.016;2023-04-01T08:37:47;98612.11;;;14.79;48.45
56176;BME280;63065;51.082;17.016;2023-04-01T08:42:52;98617.95;;;15.11;47.53
56176;BME280;63065;51.082;17.016;2023-04-01T08:50:04;98611.70;;;14.84;47.61
56176;BME280;63065;51.082;17.016;2023-04-01T08:52:30;98615.52;;;15.05;47.22
56176;BME280;63065;51.082;17.016;2023-04-01T08:55:00;98616.47;;;15.01;46.62
56176;BME280;63065;51.082;17.016;2023-04-01T08:57:18;98615.48;;;14.71;47.55
56176;BME280;63065;51.082;17.016;2023-04-01T08:59:50;98613.53;;;15.10;48.02
56176;BME280;63065;51.082;17.016;2023-04-01T09:04:41;98620.28;;;15.13;48.66
56176;BME280;63065;51.082;17.016;2023-04-01T09:07:05;98614.15;;;15.51;47.44
56176;BME280;63065;51.082;17.016;2023-04-01T09:09:32;98614.97;;;15.26;46.54
56176;BME280;63065;51.082;17.016;2023-04-01T09:16:50;98624.35;;;15.75;46.30
56176;BME280;63065;51.082;17.016;2023-04-01T09:19:11;98632.32;;;15.58;47.59
56176;BME280;63065;51.082;17.016;2023-04-01T09:21:40;98632.85;;;15.69;46.87
56176;BME280;63065;51.082;17.016;2023-04-01T09:24:11;98637.90;;;14.69;46.65
56176;BME280;63065;51.082;17.016;2023-04-01T09:28:52;98637.99;;;15.27;47.08
56176;BME280;63065;51.082;17.016;2023-04-01T09:31:25;98643.03;;;14.99;47.63
56176;BME280;63065;51.082;17.016;2023-04-01T09:33:53;98638.56;;;14.62;46.97
56176;BME280;63065;51.082;17.016;2023-04-01T09:36:05;98642.68;;;14.54;47.92
56176;BME280;63065;51.082;17.016;2023-04-01T09:38:30;98643.13;;;14.48;48.12
56176;BME280;63065;51.082;17.016;2023-04-01T09:40:56;98643.54;;;14.87;47.45
56176;BME280;63065;51.082;17.016;2023-04-01T09:43:26;98641.25;;;15.03;47.26
56176;BME280;63065;51.082;17.016;2023-04-01T09:45:52;98640.52;;;15.26;45.90
56176;BME280;63065;51.082;17.016;2023-04-01T09:48:19;98645.85;;;15.75;45.59
56176;BME280;63065;51.082;17.016;2023-04-01T09:50:42;98641.97;;;16.07;45.04
56176;BME280;63065;51.082;17.016;2023-04-01T09:53:11;98643.00;;;15.60;45.78
56176;BME280;63065;51.082;17.016;2023-04-01T10:00:27;98649.49;;;15.87;45.03
56176;BME280;63065;51.082;17.016;2023-04-01T10:05:22;98647.74;;;15.80;45.38
56176;BME280;63065;51.082;17.016;2023-04-01T10:07:43;98644.68;;;15.87;45.08
56176;BME280;63065;51.082;17.016;2023-04-01T10:12:38;98649.44;;;16.20;44.91
56176;BME280;63065;51.082;17.016;2023-04-01T10:17:26;98650.93;;;16.04;44.39
56176;BME280;63065;51.082;17.016;2023-04-01T10:22:17;98647.32;;;16.09;44.19
56176;BME280;63065;51.082;17.016;2023-04-01T10:24:45;98648.50;;;16.41;43.52
56176;BME280;63065;51.082;17.016;2023-04-01T10:27:10;98647.11;;;16.17;43.38
56176;BME280;63065;51.082;17.016;2023-04-01T10:32:02;98644.67;;;15.82;43.72
56176;BME280;63065;51.082;17.016;2023-04-01T10:36:48;98647.96;;;16.24;43.13
56176;BME280;63065;51.082;17.016;2023-04-01T10:51:24;98666.86;;;15.14;45.51
56176;BME280;63065;51.082;17.016;2023-04-01T11:23:02;98678.96;;;16.54;44.50
56176;BME280;63065;51.082;17.016;2023-04-01T11:25:36;98677.87;;;16.03;45.12
56176;BME280;63065;51.082;17.016;2023-04-01T11:27:53;98682.13;;;15.50;46.44
56176;BME280;63065;51.082;17.016;2023-04-01T11:30:19;98681.45;;;15.88;46.43
56176;BME280;63065;51.082;17.016;2023-04-01T11:32:39;98687.60;;;15.33;47.11
56176;BME280;63065;51.082;17.016;2023-04-01T11:35:12;98688.29;;;15.44;47.22
56176;BME280;63065;51.082;17.016;2023-04-01T11:37:33;98693.44;;;15.11;48.95
56176;BME280;63065;51.082;17.016;2023-04-01T11:39:59;98694.54;;;15.55;47.94
56176;BME280;63065;51.082;17.016;2023-04-01T11:42:23;98690.06;;;15.29;47.79
56176;BME280;63065;51.082;17.016;2023-04-01T11:44:47;98695.26;;;15.57;48.01
56176;BME280;63065;51.082;17.016;2023-04-01T11:47:20;98700.03;;;16.07;47.85
56176;BME280;63065;51.082;17.016;2023-04-01T11:49:39;98701.16;;;15.49;47.00
56176;BME280;63065;51.082;17.016;2023-04-01T11:52:09;98706.34;;;15.26;47.46
56176;BME280;63065;51.082;17.016;2023-04-01T11:57:01;98706.26;;;15.71;46.30
56176;BME280;63065;51.082;17.016;2023-04-01T12:01:48;98708.54;;;16.31;46.53
56176;BME280;63065;51.082;17.016;2023-04-01T12:04:18;98714.36;;;16.22;44.91
56176;BME280;63065;51.082;17.016;2023-04-01T12:06:38;98721.16;;;15.13;44.86
56176;BME280;63065;51.082;17.016;2023-04-01T12:09:03;98719.37;;;14.88;46.67
56176;BME280;63065;51.082;17.016;2023-04-01T12:11:29;98726.43;;;14.83;48.13
56176;BME280;63065;51.082;17.016;2023-04-01T12:13:53;98737.96;;;14.70;46.92
56176;BME280;63065;51.082;17.016;2023-04-01T12:16:26;98731.60;;;14.74;47.88
56176;BME280;63065;51.082;17.016;2023-04-01T12:18:43;98724.09;;;14.67;48.95
56176;BME280;63065;51.082;17.016;2023-04-01T12:21:17;98726.34;;;15.00;49.33
56176;BME280;63065;51.082;17.016;2023-04-01T12:23:42;98718.08;;;15.85;47.33
56176;BME280;63065;51.082;17.016;2023-04-01T12:26:10;98717.85;;;16.19;46.98
56176;BME280;63065;51.082;17.016;2023-04-01T12:28:29;98724.45;;;16.14;46.61
56176;BME280;63065;51.082;17.016;2023-04-01T12:30:57;98723.56;;;15.55;47.40
56176;BME280;63065;51.082;17.016;2023-04-01T12:35:50;98724.73;;;15.18;48.44
56176;BME280;63065;51.082;17.016;2023-04-01T12:38:19;98721.37;;;15.89;46.88
56176;BME280;63065;51.082;17.016;2023-04-01T12:40:42;98721.61;;;16.03;46.80
56176;BME280;63065;51.082;17.016;2023-04-01T12:43:12;98726.03;;;15.92;48.35
56176;BME280;63065;51.082;17.016;2023-04-01T12:45:29;98726.01;;;16.36;45.97
56176;BME280;63065;51.082;17.016;2023-04-01T12:48:06;98724.96;;;16.22;45.46
56176;BME280;63065;51.082;17.016;2023-04-01T12:50:23;98728.95;;;16.19;47.42
56176;BME280;63065;51.082;17.016;2023-04-01T12:52:55;98724.93;;;16.67;44.83
56176;BME280;63065;51.082;17.016;2023-04-01T12:55:21;98727.77;;;16.53;45.60
56176;BME280;63065;51.082;17.016;2023-04-01T13:00:12;98730.84;;;16.22;45.91
56176;BME280;63065;51.082;17.016;2023-04-01T13:02:35;98732.09;;;16.46;46.26
56176;BME280;63065;51.082;17.016;2023-04-01T13:05:06;98731.53;;;16.40;45.54
56176;BME280;63065;51.082;17.016;2023-04-01T13:07:26;98730.97;;;16.66;45.68
56176;BME280;63065;51.082;17.016;2023-04-01T13:09:46;98736.43;;;16.28;44.18
56176;BME280;63065;51.082;17.016;2023-04-01T13:12:21;98743.59;;;16.11;45.87
56176;BME280;63065;51.082;17.016;2023-04-01T13:14:44;98748.72;;;16.59;46.44
56176;BME280;63065;51.082;17.016;2023-04-01T13:17:04;98754.31;;;16.53;44.80
56176;BME280;63065;51.082;17.016;2023-04-01T13:19:29;98759.39;;;16.43;45.82
56176;BME280;63065;51.082;17.016;2023-04-01T13:21:55;98758.46;;;16.48;46.64
56176;BME280;63065;51.082;17.016;2023-04-01T13:26:55;98766.77;;;16.29;45.45
56176;BME280;63065;51.082;17.016;2023-04-01T13:29:13;98775.04;;;16.33;46.78
56176;BME280;63065;51.082;17.016;2023-04-01T13:31:42;98775.31;;;16.15;46.10
56176;BME280;63065;51.082;17.016;2023-04-01T13:34:08;98778.59;;;16.05;46.54
56176;BME280;63065;51.082;17.016;2023-04-01T13:36:28;98779.50;;;16.19;46.37
56176;BME280;63065;51.082;17.016;2023-04-01T13:39:03;98777.45;;;16.09;46.41
56176;BME280;63065;51.082;17.016;2023-04-01T13:41:20;98781.79;;;16.06;46.66
56176;BME280;63065;51.082;17.016;2023-04-01T13:43:43;98784.05;;;16.14;47.04
56176;BME280;63065;51.082;17.016;2023-04-01T13:46:23;98787.69;;;16.04;45.37
56176;BME280;63065;51.082;17.016;2023-04-01T13:55:55;98785.86;;;15.60;47.60
56176;BME280;63065;51.082;17.016;2023-04-01T13:58:23;98787.51;;;15.49;46.77
56176;BME280;63065;51.082;17.016;2023-04-01T14:00:46;98792.88;;;15.75;46.41
56176;BME280;63065;51.082;17.016;2023-04-01T14:03:13;98795.62;;;15.58;46.04
56176;BME280;63065;51.082;17.016;2023-04-01T14:05:39;98792.37;;;15.01;46.38
56176;BME280;63065;51.082;17.016;2023-04-01T14:08:04;98792.99;;;14.85;46.24
56176;BME280;63065;51.082;17.016;2023-04-01T14:10:29;98792.81;;;14.86;46.08
56176;BME280;63065;51.082;17.016;2023-04-01T14:12:55;98794.69;;;14.61;48.17
56176;BME280;63065;51.082;17.016;2023-04-01T14:15:25;98793.64;;;14.60;46.77
56176;BME280;63065;51.082;17.016;2023-04-01T14:17:47;98787.37;;;14.83;47.06
56176;BME280;63065;51.082;17.016;2023-04-01T14:20:20;98788.00;;;14.89;46.49